Time;durP1;ratioP1;P1;durP2;ratioP2;P2;SDS_P1;SDS_P2;PMS_P1;PMS_P2;Temp;Humidity;BMP_temperature;BMP_pressure;BME280_temperature;BME280_humidity;BME280_pressure;Samples;Min_cycle;Max_cycle;Signal;HPM_P1;HPM_P2
2023/07/25 00:01:06;;;;;;;8.63;2.88;;;11.60;99.90;;;;;;5013288;28;20056;-69
2023/07/25 00:03:32;;;;;;;13.70;2.60;;;11.50;99.90;;;;;;5002580;28;20413;-69
2023/07/25 00:05:57;;;;;;;9.70;2.92;;;11.50;99.90;;;;;;5001955;28;20045;-70
2023/07/25 00:08:23;;;;;;;7.55;3.22;;;11.50;99.90;;;;;;5002085;28;20053;-69
2023/07/25 00:10:49;;;;;;;7.00;2.80;;;11.50;99.90;;;;;;5004366;28;20045;-69
2023/07/25 00:13:15;;;;;;;15.05;3.72;;;11.50;99.90;;;;;;5004267;28;20121;-69
2023/07/25 00:15:40;;;;;;;8.85;2.50;;;11.40;99.90;;;;;;5002509;28;20054;-70
2023/07/25 00:18:06;;;;;;;8.73;3.00;;;11.50;99.90;;;;;;5009397;28;20120;-69
2023/07/25 00:20:31;;;;;;;8.52;2.40;;;11.60;99.90;;;;;;5011544;28;20050;-69
2023/07/25 00:22:57;;;;;;;8.55;2.80;;;11.40;99.90;;;;;;5001602;28;20134;-69
2023/07/25 00:25:23;;;;;;;11.88;3.55;;;11.40;99.90;;;;;;5001199;28;20074;-69
2023/07/25 00:27:49;;;;;;;6.50;2.70;;;11.40;99.90;;;;;;5002534;28;20101;-69
2023/07/25 00:30:14;;;;;;;12.95;3.28;;;11.40;99.90;;;;;;5007655;28;20096;-69
2023/07/25 00:32:40;;;;;;;10.95;2.80;;;11.40;99.90;;;;;;5000811;28;20567;-70
2023/07/25 00:35:06;;;;;;;10.77;3.47;;;11.60;99.90;;;;;;5003939;28;20100;-69
2023/07/25 00:37:31;;;;;;;7.05;3.38;;;11.40;99.90;;;;;;5004378;28;20045;-69
2023/07/25 00:39:57;;;;;;;12.32;3.20;;;11.40;99.90;;;;;;4993809;28;20049;-69
2023/07/25 00:42:23;;;;;;;7.20;2.70;;;11.60;99.90;;;;;;5001091;28;20473;-69
2023/07/25 00:44:49;;;;;;;7.13;3.15;;;11.40;99.90;;;;;;5000885;28;20050;-69
2023/07/25 00:47:17;;;;;;;11.07;3.42;;;11.50;99.90;;;;;;5010631;28;20049;-69
2023/07/25 00:49:43;;;;;;;8.15;2.92;;;11.50;99.90;;;;;;5006193;28;20038;-69
2023/07/25 00:52:09;;;;;;;9.63;2.92;;;11.40;99.90;;;;;;5000879;28;20496;-69
2023/07/25 00:54:39;;;;;;;13.35;3.67;;;11.50;99.90;;;;;;5000578;28;20060;-69
2023/07/25 00:57:07;;;;;;;12.15;3.28;;;11.50;99.90;;;;;;5000373;28;20129;-68
2023/07/25 00:59:33;;;;;;;14.00;2.88;;;11.50;99.90;;;;;;5004027;28;20038;-69
2023/07/25 01:01:59;;;;;;;8.73;3.10;;;11.50;99.90;;;;;;4994439;28;20048;-69
2023/07/25 01:04:25;;;;;;;10.07;3.20;;;11.50;99.90;;;;;;5002192;28;20234;-69
2023/07/25 01:06:52;;;;;;;10.35;3.10;;;11.40;99.90;;;;;;5000744;28;20043;-69
2023/07/25 01:09:38;;;;;;;8.98;3.05;;;11.40;99.90;;;;;;5000304;28;20050;-69
2023/07/25 01:12:07;;;;;;;10.02;3.35;;;11.50;99.90;;;;;;5003249;28;20046;-69
2023/07/25 01:14:34;;;;;;;13.40;2.90;;;11.50;99.90;;;;;;5002101;28;20037;-69
2023/07/25 01:17:12;;;;;;;13.27;3.22;;;11.50;99.90;;;;;;5005026;28;20049;-69
2023/07/25 01:19:41;;;;;;;9.77;2.80;;;11.50;99.90;;;;;;5002009;28;20547;-69
2023/07/25 01:22:08;;;;;;;11.50;3.45;;;11.50;99.90;;;;;;5000090;28;20457;-68
2023/07/25 01:24:35;;;;;;;14.85;3.40;;;11.50;99.90;;;;;;5000057;28;20042;-69
2023/07/25 01:27:02;;;;;;;13.90;3.63;;;11.50;99.90;;;;;;5003258;28;20042;-69
2023/07/25 01:29:28;;;;;;;10.18;3.20;;;11.60;99.90;;;;;;5003286;28;20112;-69
2023/07/25 01:31:54;;;;;;;6.50;2.95;;;11.60;99.90;;;;;;5001011;28;20941;-69
2023/07/25 01:34:19;;;;;;;14.23;3.25;;;11.70;99.90;;;;;;5000200;28;20129;-69
2023/07/25 01:36:45;;;;;;;9.18;3.50;;;11.70;99.90;;;;;;5007364;28;20046;-69
2023/07/25 01:39:11;;;;;;;11.38;3.40;;;11.70;99.90;;;;;;5002890;28;20084;-71
2023/07/25 01:41:38;;;;;;;11.73;3.90;;;11.70;99.90;;;;;;5002860;28;20125;-69
2023/07/25 01:44:03;;;;;;;10.93;3.53;;;11.80;99.90;;;;;;5002953;28;20042;-69
2023/07/25 01:46:29;;;;;;;9.85;4.15;;;11.80;99.90;;;;;;5006721;28;20160;-69
2023/07/25 01:48:55;;;;;;;8.32;3.50;;;11.90;99.90;;;;;;4990092;28;20060;-69
2023/07/25 01:51:20;;;;;;;11.38;3.50;;;11.90;99.90;;;;;;5002262;28;20104;-68
2023/07/25 01:53:46;;;;;;;12.55;3.83;;;11.90;99.90;;;;;;5002892;28;20030;-69
2023/07/25 01:56:11;;;;;;;10.80;3.53;;;11.90;99.90;;;;;;5001810;28;20042;-69
2023/07/25 01:58:37;;;;;;;14.32;3.35;;;12.00;99.90;;;;;;4999965;28;20042;-69
2023/07/25 02:01:03;;;;;;;10.88;3.38;;;12.10;99.90;;;;;;5009183;28;20493;-69
2023/07/25 02:03:28;;;;;;;12.65;3.85;;;12.10;99.90;;;;;;4991361;28;20133;-69
2023/07/25 02:05:54;;;;;;;9.65;3.20;;;12.00;99.90;;;;;;4999955;28;20050;-69
2023/07/25 02:08:20;;;;;;;11.65;3.55;;;12.00;99.90;;;;;;5007928;28;20045;-69
2023/07/25 02:10:45;;;;;;;10.07;3.20;;;12.00;99.90;;;;;;5010859;28;20104;-69
2023/07/25 02:13:11;;;;;;;8.50;3.10;;;12.00;99.90;;;;;;5002519;28;20046;-69
2023/07/25 02:15:37;;;;;;;13.52;3.17;;;12.00;99.90;;;;;;4991462;28;20054;-68
2023/07/25 02:18:03;;;;;;;8.60;3.00;;;12.00;99.90;;;;;;5002750;28;20137;-69
2023/07/25 02:20:32;;;;;;;11.98;3.47;;;12.00;99.90;;;;;;5002349;28;20053;-68
2023/07/25 02:22:58;;;;;;;10.80;2.97;;;11.90;99.90;;;;;;4985166;28;20054;-69
2023/07/25 02:25:26;;;;;;;10.38;2.83;;;12.00;99.90;;;;;;5002018;28;20132;-69
2023/07/25 02:27:52;;;;;;;9.95;3.03;;;12.00;99.90;;;;;;5000234;28;20073;-68
2023/07/25 02:30:18;;;;;;;11.20;3.78;;;12.00;99.90;;;;;;4992560;28;20144;-69
2023/07/25 02:32:43;;;;;;;12.18;4.18;;;12.00;99.90;;;;;;5001781;28;20038;-69
2023/07/25 02:35:09;;;;;;;11.60;3.17;;;12.00;99.90;;;;;;4991105;28;20050;-69
2023/07/25 02:37:34;;;;;;;9.90;3.28;;;12.00;99.90;;;;;;4984354;28;20408;-69
2023/07/25 02:40:00;;;;;;;8.43;2.65;;;12.00;99.90;;;;;;5009434;28;20054;-70
2023/07/25 02:42:25;;;;;;;8.95;2.70;;;12.00;99.90;;;;;;5001625;28;20052;-69
2023/07/25 02:44:51;;;;;;;9.55;3.30;;;12.10;99.90;;;;;;5009577;28;20540;-70
2023/07/25 02:47:17;;;;;;;17.23;3.08;;;12.10;99.90;;;;;;5001761;28;20100;-70
2023/07/25 02:49:42;;;;;;;9.75;3.10;;;12.10;99.90;;;;;;5002173;28;20149;-70
2023/07/25 02:52:08;;;;;;;9.57;3.15;;;12.10;99.90;;;;;;5001733;28;20504;-70
2023/07/25 02:54:34;;;;;;;11.32;3.20;;;12.20;99.90;;;;;;5001692;28;20041;-69
2023/07/25 02:56:59;;;;;;;13.23;3.50;;;12.20;99.90;;;;;;5001751;28;20049;-70
2023/07/25 02:59:25;;;;;;;15.65;3.47;;;12.30;99.90;;;;;;4990292;28;20480;-69
2023/07/25 03:01:50;;;;;;;16.77;3.78;;;12.40;99.90;;;;;;4999014;28;20043;-69
2023/07/25 03:04:16;;;;;;;11.68;2.97;;;12.40;99.90;;;;;;4999524;28;20050;-69
2023/07/25 03:06:42;;;;;;;10.77;3.33;;;12.50;99.90;;;;;;5001589;28;20050;-69
2023/07/25 03:09:08;;;;;;;16.52;3.78;;;12.50;99.90;;;;;;5005340;28;20111;-69
2023/07/25 03:11:33;;;;;;;10.30;3.40;;;12.50;99.90;;;;;;4999517;28;20497;-69
2023/07/25 03:13:59;;;;;;;11.02;3.20;;;12.60;99.90;;;;;;5003048;28;20053;-69
2023/07/25 03:16:25;;;;;;;9.45;2.95;;;12.60;99.90;;;;;;5001665;28;20050;-69
2023/07/25 03:18:50;;;;;;;14.13;3.00;;;12.60;99.90;;;;;;5006512;28;20523;-70
2023/07/25 03:21:16;;;;;;;14.18;2.80;;;12.60;99.90;;;;;;5004801;28;20046;-70
2023/07/25 03:23:42;;;;;;;9.30;2.25;;;12.50;99.90;;;;;;5001472;28;20121;-69
2023/07/25 03:26:07;;;;;;;12.75;2.80;;;12.60;99.90;;;;;;5009497;28;20469;-69
2023/07/25 03:28:33;;;;;;;11.45;2.70;;;12.60;99.90;;;;;;5000791;28;20046;-70
2023/07/25 03:30:58;;;;;;;11.13;2.25;;;12.60;99.90;;;;;;4998940;28;20129;-69
2023/07/25 03:33:24;;;;;;;10.32;2.85;;;12.50;99.90;;;;;;4998542;28;20141;-69
2023/07/25 03:35:50;;;;;;;13.43;3.13;;;12.50;99.90;;;;;;4998787;28;20050;-69
2023/07/25 03:38:15;;;;;;;13.10;3.08;;;12.50;99.90;;;;;;5008171;28;20034;-69
2023/07/25 03:40:41;;;;;;;9.75;2.35;;;12.50;99.90;;;;;;5001500;28;20556;-70
2023/07/25 03:43:07;;;;;;;10.05;2.80;;;12.40;99.90;;;;;;4990163;28;20496;-69
2023/07/25 03:45:32;;;;;;;13.57;2.70;;;12.40;99.90;;;;;;5004156;28;20186;-69
2023/07/25 03:47:58;;;;;;;9.75;2.50;;;12.40;99.90;;;;;;4998521;28;20405;-69
2023/07/25 03:50:23;;;;;;;11.82;2.85;;;12.40;99.90;;;;;;5001293;28;20766;-69
2023/07/25 03:52:49;;;;;;;9.15;2.28;;;12.30;99.90;;;;;;4991626;28;20045;-69
2023/07/25 03:55:15;;;;;;;9.15;2.20;;;12.30;99.90;;;;;;4999659;28;20045;-69
2023/07/25 03:57:40;;;;;;;8.27;2.20;;;12.30;99.90;;;;;;5001445;28;20096;-69
2023/07/25 04:00:06;;;;;;;10.80;2.58;;;12.20;99.90;;;;;;5008877;28;20046;-69
2023/07/25 04:02:32;;;;;;;11.52;2.78;;;12.20;99.90;;;;;;4998609;28;20049;-68
2023/07/25 04:04:58;;;;;;;8.18;2.50;;;12.20;99.90;;;;;;5003785;28;20055;-69
2023/07/25 04:07:23;;;;;;;10.55;2.58;;;12.10;99.90;;;;;;5003490;28;20045;-69
2023/07/25 04:09:49;;;;;;;11.40;2.40;;;12.10;99.90;;;;;;5012962;28;20069;-69
2023/07/25 04:12:14;;;;;;;8.00;2.05;;;12.00;99.90;;;;;;5004735;28;20057;-69
2023/07/25 04:14:40;;;;;;;8.93;2.90;;;12.10;99.90;;;;;;5007500;28;20128;-69
2023/07/25 04:17:06;;;;;;;10.35;2.05;;;12.00;99.90;;;;;;5004805;28;20050;-69
2023/07/25 04:19:32;;;;;;;4.53;2.00;;;12.00;99.90;;;;;;5004220;28;20050;-69
2023/07/25 04:21:58;;;;;;;7.97;2.03;;;11.90;99.90;;;;;;4991777;28;20482;-70
2023/07/25 04:24:23;;;;;;;8.73;2.00;;;11.90;99.90;;;;;;5008091;28;20052;-69
2023/07/25 04:26:49;;;;;;;8.70;2.22;;;12.00;99.90;;;;;;5004087;28;20038;-69
2023/07/25 04:29:14;;;;;;;12.98;2.33;;;11.90;99.90;;;;;;5004110;28;20400;-69
2023/07/25 04:31:40;;;;;;;11.40;1.80;;;11.90;99.90;;;;;;5003908;28;20139;-69
2023/07/25 04:34:06;;;;;;;4.57;1.60;;;11.90;99.90;;;;;;5001240;28;20481;-69
2023/07/25 04:36:31;;;;;;;5.65;1.75;;;11.80;99.90;;;;;;5010969;28;20044;-68
2023/07/25 04:38:57;;;;;;;12.40;2.30;;;11.90;99.90;;;;;;5010876;28;20034;-69
2023/07/25 04:41:23;;;;;;;9.15;2.33;;;11.90;99.90;;;;;;4991903;28;20046;-69
2023/07/25 04:43:49;;;;;;;8.85;2.65;;;11.90;99.90;;;;;;5007930;28;20046;-69
2023/07/25 04:46:14;;;;;;;11.50;2.60;;;11.90;99.90;;;;;;5009211;28;20058;-69
2023/07/25 04:48:40;;;;;;;12.65;2.28;;;11.90;99.90;;;;;;5006406;28;20053;-69
2023/07/25 04:51:06;;;;;;;8.25;2.20;;;11.90;99.90;;;;;;5001852;28;20525;-68
2023/07/25 04:53:33;;;;;;;13.48;2.30;;;11.90;99.90;;;;;;5004100;28;20533;-69
2023/07/25 04:55:59;;;;;;;6.70;2.05;;;11.90;99.90;;;;;;5003791;28;20504;-70
2023/07/25 04:58:24;;;;;;;6.72;2.05;;;12.00;99.90;;;;;;5001382;28;20049;-70
2023/07/25 05:00:50;;;;;;;9.32;2.10;;;12.10;99.90;;;;;;5000462;28;20038;-68
2023/07/25 05:03:16;;;;;;;7.30;2.50;;;12.10;99.90;;;;;;5008079;28;20045;-69
2023/07/25 05:05:41;;;;;;;8.32;2.60;;;12.20;99.90;;;;;;5003770;28;20432;-69
2023/07/25 05:08:07;;;;;;;12.82;2.47;;;12.20;99.90;;;;;;4993902;28;20057;-69
2023/07/25 05:10:35;;;;;;;10.13;2.30;;;12.60;99.90;;;;;;5009869;28;20046;-69
2023/07/25 05:13:00;;;;;;;10.98;2.65;;;12.40;99.90;;;;;;4994060;28;20049;-69
2023/07/25 05:15:26;;;;;;;12.23;2.63;;;12.30;99.90;;;;;;5003491;28;20823;-69
2023/07/25 05:17:52;;;;;;;14.32;2.47;;;12.40;99.90;;;;;;5005156;28;20052;-69
2023/07/25 05:20:18;;;;;;;14.60;2.50;;;12.50;99.90;;;;;;5005003;28;20125;-70
2023/07/25 05:22:43;;;;;;;11.35;2.65;;;12.60;99.90;;;;;;5001828;28;20053;-69
2023/07/25 05:25:09;;;;;;;13.65;2.55;;;12.80;99.90;;;;;;4993965;28;20045;-69
2023/07/25 05:27:35;;;;;;;13.32;2.30;;;12.70;99.90;;;;;;5003350;28;20041;-69
2023/07/25 05:30:00;;;;;;;10.57;2.30;;;12.70;99.90;;;;;;5011616;28;20041;-69
2023/07/25 05:32:26;;;;;;;13.57;2.78;;;12.80;99.90;;;;;;5003001;28;20038;-69
2023/07/25 05:34:51;;;;;;;6.82;2.00;;;12.90;99.90;;;;;;4992084;28;20042;-69
2023/07/25 05:37:18;;;;;;;12.73;2.28;;;12.80;99.90;;;;;;5004471;28;20038;-69
2023/07/25 05:39:44;;;;;;;10.02;2.40;;;12.80;99.90;;;;;;5003371;28;20378;-69
2023/07/25 05:42:10;;;;;;;6.80;1.88;;;12.90;99.90;;;;;;5002656;28;20049;-69
2023/07/25 05:44:35;;;;;;;8.82;2.28;;;12.90;99.90;;;;;;5003251;28;20054;-69
2023/07/25 05:47:05;;;;;;;12.82;2.55;;;12.90;99.90;;;;;;4991894;28;20053;-69
2023/07/25 05:49:30;;;;;;;10.00;2.10;;;13.00;99.90;;;;;;4999829;28;20059;-69
2023/07/25 05:51:56;;;;;;;8.82;2.33;;;13.10;99.90;;;;;;5000879;28;20058;-69
2023/07/25 05:54:22;;;;;;;10.05;2.47;;;13.30;99.90;;;;;;4993103;28;20053;-69
2023/07/25 05:56:47;;;;;;;13.90;2.10;;;13.20;99.90;;;;;;5005195;28;20527;-68
2023/07/25 05:59:13;;;;;;;9.18;2.05;;;13.30;99.90;;;;;;5004611;28;20447;-68
2023/07/25 06:01:39;;;;;;;8.82;1.88;;;13.40;99.90;;;;;;5006637;28;20034;-69
2023/07/25 06:04:05;;;;;;;11.60;1.52;;;13.50;99.90;;;;;;4999455;28;20046;-68
2023/07/25 06:06:31;;;;;;;11.82;2.05;;;13.60;99.90;;;;;;4992401;28;20618;-69
2023/07/25 06:08:57;;;;;;;13.02;1.42;;;13.60;99.90;;;;;;5010680;28;20052;-69
2023/07/25 06:11:23;;;;;;;7.13;1.52;;;13.80;99.90;;;;;;5002191;28;20050;-69
2023/07/25 06:13:52;;;;;;;12.05;1.73;;;13.90;99.90;;;;;;4999343;28;20042;-68
2023/07/25 06:16:18;;;;;;;8.77;1.50;;;14.00;99.90;;;;;;4999301;28;20082;-69
2023/07/25 06:18:44;;;;;;;14.50;2.08;;;14.00;99.90;;;;;;5001188;28;20100;-68
2023/07/25 06:21:10;;;;;;;7.20;2.00;;;14.10;99.90;;;;;;5007255;28;20165;-68
2023/07/25 06:23:36;;;;;;;6.43;1.20;;;14.20;99.90;;;;;;5002414;28;20104;-69
2023/07/25 06:26:01;;;;;;;7.90;1.65;;;14.30;99.90;;;;;;5002373;28;20423;-69
2023/07/25 06:28:27;;;;;;;9.73;1.45;;;14.30;99.90;;;;;;5001647;28;20038;-68
2023/07/25 06:30:53;;;;;;;5.65;1.42;;;14.50;99.90;;;;;;4999688;28;20037;-67
2023/07/25 06:33:18;;;;;;;7.05;1.20;;;14.50;99.90;;;;;;5009617;28;20042;-68
2023/07/25 06:35:44;;;;;;;7.85;1.52;;;14.50;99.90;;;;;;5002081;28;20069;-66
2023/07/25 06:38:10;;;;;;;9.93;0.90;;;14.70;99.90;;;;;;5006546;28;20050;-69
2023/07/25 06:40:36;;;;;;;3.33;0.93;;;14.70;99.90;;;;;;4999256;28;20042;-68
2023/07/25 06:43:01;;;;;;;13.95;1.27;;;14.70;99.90;;;;;;5000239;28;20053;-69
2023/07/25 06:45:27;;;;;;;10.32;0.93;;;14.80;99.90;;;;;;5001669;28;20065;-69
2023/07/25 06:47:52;;;;;;;6.95;0.85;;;14.80;99.90;;;;;;5001407;28;20034;-68
2023/07/25 06:50:18;;;;;;;5.60;0.80;;;14.90;99.90;;;;;;5006232;28;20053;-68
2023/07/25 06:52:44;;;;;;;7.43;1.10;;;15.10;99.90;;;;;;5005163;28;20068;-69
2023/07/25 06:55:09;;;;;;;6.30;0.77;;;15.10;99.90;;;;;;5001765;28;20067;-68
2023/07/25 06:57:35;;;;;;;6.55;0.82;;;15.10;99.90;;;;;;5001984;28;20046;-68
2023/07/25 07:00:00;;;;;;;6.15;0.75;;;15.20;99.90;;;;;;5001687;28;20038;-68
2023/07/25 07:02:26;;;;;;;11.45;1.00;;;15.30;99.90;;;;;;5001505;28;20424;-68
2023/07/25 07:04:52;;;;;;;6.43;0.77;;;15.30;99.90;;;;;;5009668;28;20444;-68
2023/07/25 07:07:17;;;;;;;6.78;0.80;;;15.40;99.90;;;;;;5001511;28;20519;-68
2023/07/25 07:09:43;;;;;;;3.75;0.82;;;15.60;99.90;;;;;;4989104;28;20695;-69
2023/07/25 07:12:09;;;;;;;6.78;0.90;;;15.70;99.90;;;;;;4998698;28;20416;-68
2023/07/25 07:14:34;;;;;;;4.97;0.55;;;15.80;99.90;;;;;;5000207;28;20061;-69
2023/07/25 07:17:00;;;;;;;5.45;1.23;;;15.90;99.90;;;;;;5001754;28;20128;-68
2023/07/25 07:19:25;;;;;;;7.10;1.20;;;16.10;99.90;;;;;;5001578;28;20054;-68
2023/07/25 07:21:51;;;;;;;3.30;0.60;;;16.20;99.90;;;;;;4989301;28;20046;-68
2023/07/25 07:24:17;;;;;;;4.95;0.80;;;16.30;99.90;;;;;;5004246;28;20397;-68
2023/07/25 07:26:42;;;;;;;8.05;0.80;;;16.30;99.90;;;;;;5008910;28;20053;-66
2023/07/25 07:29:10;;;;;;;5.15;0.80;;;16.40;99.90;;;;;;5003067;28;20108;-69
2023/07/25 07:31:35;;;;;;;4.88;0.60;;;16.60;99.90;;;;;;5002037;28;20050;-69
2023/07/25 07:34:13;;;;;;;4.78;0.60;;;16.80;99.90;;;;;;5003087;28;20137;-67
2023/07/25 07:36:38;;;;;;;4.72;0.93;;;16.90;99.90;;;;;;5006025;28;20038;-68
2023/07/25 07:39:04;;;;;;;5.93;0.60;;;16.70;99.90;;;;;;5001425;28;20700;-67
2023/07/25 07:41:30;;;;;;;2.60;0.57;;;16.70;99.90;;;;;;5007020;28;20093;-68
2023/07/25 07:43:55;;;;;;;5.90;0.80;;;16.70;99.90;;;;;;4992753;28;20101;-68
2023/07/25 07:46:21;;;;;;;5.25;0.63;;;16.60;99.90;;;;;;5005016;28;20044;-68
2023/07/25 07:48:46;;;;;;;4.40;0.52;;;16.70;99.90;;;;;;5004750;28;20048;-66
2023/07/25 07:51:12;;;;;;;7.47;0.70;;;16.70;99.90;;;;;;5011619;28;20050;-67
2023/07/25 07:53:38;;;;;;;7.55;0.60;;;16.90;99.90;;;;;;5004943;28;20436;-67
2023/07/25 07:56:07;;;;;;;3.97;0.70;;;16.90;99.90;;;;;;5012223;28;20058;-68
2023/07/25 07:58:33;;;;;;;9.40;0.82;;;17.00;99.90;;;;;;5006558;28;20082;-69
2023/07/25 08:00:58;;;;;;;6.50;1.02;;;17.20;99.90;;;;;;5007039;28;20605;-69
2023/07/25 08:03:24;;;;;;;5.13;0.70;;;17.30;99.90;;;;;;4995168;28;20618;-70
2023/07/25 08:05:57;;;;;;;6.90;0.65;;;17.50;99.90;;;;;;5005103;28;20042;-68
2023/07/25 08:08:22;;;;;;;9.45;1.23;;;17.50;99.90;;;;;;5004511;28;20049;-68
2023/07/25 08:10:48;;;;;;;4.95;0.80;;;17.80;99.90;;;;;;4995598;28;20041;-68
2023/07/25 08:13:14;;;;;;;4.32;0.70;;;17.80;99.90;;;;;;5013117;28;20041;-68
2023/07/25 08:15:39;;;;;;;5.25;0.68;;;18.10;99.90;;;;;;5005393;28;20494;-69
2023/07/25 08:18:05;;;;;;;6.00;1.02;;;18.40;99.90;;;;;;5008834;28;20045;-68
2023/07/25 08:20:30;;;;;;;3.72;0.55;;;18.70;99.90;;;;;;5012476;28;20049;-68
2023/07/25 08:22:56;;;;;;;6.50;1.10;;;18.70;99.90;;;;;;5002157;28;20050;-68
2023/07/25 08:25:22;;;;;;;6.03;0.88;;;19.00;99.90;;;;;;5006638;28;20046;-69
2023/07/25 08:27:47;;;;;;;5.63;0.85;;;19.20;99.90;;;;;;5004025;28;20120;-68
2023/07/25 08:30:13;;;;;;;5.05;0.80;;;19.30;99.90;;;;;;5005118;28;20050;-67
2023/07/25 08:32:40;;;;;;;4.30;0.93;;;19.30;99.90;;;;;;5004862;28;20112;-68
2023/07/25 08:35:05;;;;;;;6.43;0.80;;;19.40;99.90;;;;;;5001281;28;20070;-68
2023/07/25 08:37:31;;;;;;;8.00;0.90;;;19.50;99.90;;;;;;5006182;28;20042;-67
2023/07/25 08:39:57;;;;;;;2.83;0.60;;;19.60;99.90;;;;;;5003391;28;20054;-68
2023/07/25 08:42:25;;;;;;;2.88;0.65;;;19.50;99.90;;;;;;5005197;28;20034;-68
2023/07/25 08:44:52;;;;;;;4.50;0.77;;;19.60;99.90;;;;;;5004662;28;20133;-71
2023/07/25 08:47:25;;;;;;;7.40;0.70;;;19.70;99.90;;;;;;5001720;28;20050;-68
2023/07/25 08:49:53;;;;;;;6.95;0.70;;;19.40;99.90;;;;;;4991921;28;20054;-70
2023/07/25 08:52:20;;;;;;;2.00;0.43;;;19.20;99.90;;;;;;5003018;28;20164;-70
2023/07/25 08:54:48;;;;;;;3.47;0.60;;;19.40;99.90;;;;;;5013301;28;20390;-69
2023/07/25 08:57:16;;;;;;;4.28;0.80;;;19.60;99.90;;;;;;4993511;28;20394;-70
2023/07/25 08:59:42;;;;;;;4.40;0.70;;;20.00;99.90;;;;;;5012428;28;20042;-68
2023/07/25 09:02:10;;;;;;;5.45;0.82;;;20.20;99.90;;;;;;5004204;28;20504;-68
2023/07/25 09:04:36;;;;;;;7.20;0.90;;;20.00;99.90;;;;;;4991600;28;20058;-68
2023/07/25 09:07:02;;;;;;;3.97;0.65;;;19.80;99.90;;;;;;5001100;28;20034;-69
2023/07/25 09:09:27;;;;;;;6.40;0.90;;;19.60;99.90;;;;;;4992956;28;20060;-69
2023/07/25 09:11:54;;;;;;;4.00;0.70;;;19.80;99.90;;;;;;5004353;28;20041;-68
2023/07/25 09:14:20;;;;;;;7.80;0.70;;;19.60;99.90;;;;;;4978522;28;20062;-68
2023/07/25 09:16:47;;;;;;;6.28;0.70;;;19.90;99.90;;;;;;5001283;28;20065;-69
2023/07/25 09:19:13;;;;;;;4.40;0.80;;;19.70;99.90;;;;;;5000813;28;20050;-69
2023/07/25 09:21:46;;;;;;;4.95;0.70;;;19.50;99.90;;;;;;5002256;28;20046;-69
2023/07/25 09:24:13;;;;;;;4.73;0.80;;;19.60;99.90;;;;;;4994884;28;20054;-68
2023/07/25 09:26:39;;;;;;;4.70;0.57;;;19.70;99.90;;;;;;5003228;28;20046;-69
2023/07/25 09:29:05;;;;;;;8.90;1.10;;;19.70;99.90;;;;;;5006849;28;20077;-69
2023/07/25 09:31:41;;;;;;;4.00;0.70;;;19.30;99.90;;;;;;5012497;28;20077;-70
2023/07/25 09:34:06;;;;;;;5.68;0.80;;;19.00;99.90;;;;;;5005082;28;20042;-68
2023/07/25 09:36:32;;;;;;;5.82;0.82;;;18.70;99.90;;;;;;5004190;28;20489;-68
2023/07/25 09:38:58;;;;;;;2.67;0.45;;;18.60;99.90;;;;;;5003596;28;20050;-67
2023/07/25 09:41:25;;;;;;;6.72;0.90;;;18.90;99.90;;;;;;5009204;28;20050;-69
2023/07/25 09:43:51;;;;;;;8.68;1.10;;;19.40;99.90;;;;;;5003760;28;20058;-68
2023/07/25 09:46:17;;;;;;;4.95;0.82;;;19.20;99.90;;;;;;5003289;28;20057;-68
2023/07/25 09:48:50;;;;;;;7.80;0.98;;;18.80;99.90;;;;;;5011010;28;20038;-71
2023/07/25 09:51:15;;;;;;;6.50;1.20;;;18.80;99.90;;;;;;5000430;28;20655;-69
2023/07/25 09:53:49;;;;;;;8.45;1.20;;;18.80;99.90;;;;;;5006178;28;20041;-68
2023/07/25 09:56:15;;;;;;;11.80;0.90;;;18.70;99.90;;;;;;5001241;28;20523;-68
2023/07/25 09:58:41;;;;;;;4.57;0.60;;;19.10;99.90;;;;;;5000131;28;20062;-69
2023/07/25 10:01:09;;;;;;;6.18;0.98;;;19.30;99.90;;;;;;5000326;28;20042;-70
2023/07/25 10:03:35;;;;;;;7.65;1.17;;;19.80;99.90;;;;;;5003274;28;20045;-67
2023/07/25 10:06:04;;;;;;;8.23;1.13;;;19.80;99.90;;;;;;5003391;28;20045;-68
2023/07/25 10:08:30;;;;;;;7.13;1.00;;;19.90;99.90;;;;;;4991012;28;20057;-70
2023/07/25 10:10:57;;;;;;;9.80;0.82;;;19.90;99.90;;;;;;4990449;28;20058;-69
2023/07/25 10:13:23;;;;;;;13.60;1.60;;;19.70;99.90;;;;;;5002267;28;21510;-69
2023/07/25 10:15:50;;;;;;;5.45;0.90;;;19.50;99.90;;;;;;4990291;28;20042;-67
2023/07/25 10:18:27;;;;;;;6.90;1.05;;;19.40;99.90;;;;;;5007048;28;20543;-69
2023/07/25 10:20:54;;;;;;;2.83;0.60;;;19.20;99.90;;;;;;5011377;28;20049;-69
2023/07/25 10:23:29;;;;;;;7.38;0.90;;;19.10;99.90;;;;;;4993733;28;20404;-69
2023/07/25 10:25:55;;;;;;;7.40;0.70;;;19.30;99.90;;;;;;4999988;28;20781;-69
2023/07/25 10:28:24;;;;;;;4.78;0.88;;;19.30;99.90;;;;;;4999995;28;20081;-69
2023/07/25 10:30:52;;;;;;;6.85;0.63;;;19.50;99.90;;;;;;5001417;28;20164;-69
2023/07/25 10:33:18;;;;;;;3.20;0.60;;;20.10;99.90;;;;;;5002966;28;20046;-70
2023/07/25 10:35:50;;;;;;;5.35;0.70;;;20.40;99.90;;;;;;5002297;28;20037;-70
2023/07/25 10:38:34;;;;;;;5.95;1.10;;;20.40;99.90;;;;;;4999751;28;20046;-68
2023/07/25 10:41:10;;;;;;;3.78;1.05;;;20.20;99.90;;;;;;5009132;28;20511;-69
2023/07/25 10:43:44;;;;;;;4.72;0.93;;;20.10;99.90;;;;;;5011105;28;20041;-67
2023/07/25 10:46:19;;;;;;;4.10;0.50;;;20.20;99.90;;;;;;4999898;28;20137;-68
2023/07/25 10:48:45;;;;;;;;;;;20.00;99.90;;;;;;4999999;28;20109;-69
2023/07/25 10:51:12;;;;;;;5.78;0.60;;;19.90;99.90;;;;;;5004151;28;20376;-68
2023/07/25 10:53:39;;;;;;;6.07;0.70;;;19.70;99.90;;;;;;5001399;28;20505;-68
2023/07/25 10:56:04;;;;;;;6.72;0.93;;;19.70;99.90;;;;;;5009817;28;20042;-68
2023/07/25 10:58:35;;;;;;;4.63;0.75;;;19.90;99.90;;;;;;4999516;28;20042;-68
2023/07/25 11:01:01;;;;;;;3.30;0.73;;;20.20;99.90;;;;;;4999705;28;20165;-69
2023/07/25 11:03:36;;;;;;;6.00;0.90;;;20.20;99.90;;;;;;5001794;28;20054;-68
2023/07/25 11:06:08;;;;;;;4.25;0.70;;;20.20;99.90;;;;;;5002228;28;20732;-68
2023/07/25 11:08:38;;;;;;;6.28;0.80;;;20.00;99.90;;;;;;4998769;28;20055;-68
2023/07/25 11:11:11;;;;;;;3.72;0.60;;;19.80;99.90;;;;;;4998959;28;20070;-68
2023/07/25 11:13:42;;;;;;;7.30;0.90;;;19.70;99.90;;;;;;5001591;28;20054;-67
2023/07/25 11:16:11;;;;;;;4.28;0.60;;;19.70;99.90;;;;;;5015012;28;20563;-68
2023/07/25 11:18:49;;;;;;;2.40;0.40;;;20.10;99.90;;;;;;5006805;28;20404;-68
2023/07/25 11:21:15;;;;;;;4.75;0.73;;;20.70;99.90;;;;;;5005890;28;20052;-69
2023/07/25 11:23:41;;;;;;;4.25;0.70;;;20.70;99.90;;;;;;4998690;28;20060;-68
2023/07/25 11:26:07;;;;;;;4.10;0.82;;;20.60;99.90;;;;;;5008988;28;20712;-68
2023/07/25 11:28:34;;;;;;;5.63;0.80;;;20.50;99.90;;;;;;5014316;28;20493;-67
2023/07/25 11:30:59;;;;;;;6.85;0.88;;;20.10;99.90;;;;;;5013200;28;20490;-69
2023/07/25 11:33:25;;;;;;;5.13;0.60;;;20.00;99.90;;;;;;5010327;28;20041;-69
2023/07/25 11:35:52;;;;;;;4.25;0.85;;;19.90;99.90;;;;;;5014470;28;20045;-67
2023/07/25 11:38:18;;;;;;;4.55;0.55;;;20.00;99.90;;;;;;5011587;28;20039;-68
2023/07/25 11:40:53;;;;;;;2.83;0.70;;;20.10;99.90;;;;;;5005516;28;20050;-69
2023/07/25 11:43:20;;;;;;;5.43;0.90;;;20.30;99.90;;;;;;5010155;28;20121;-68
2023/07/25 11:45:46;;;;;;;2.92;0.60;;;20.20;99.90;;;;;;5008309;28;20054;-69
2023/07/25 11:48:15;;;;;;;3.67;0.60;;;20.10;99.90;;;;;;5005801;28;20053;-69
2023/07/25 11:50:48;;;;;;;3.45;0.63;;;20.00;99.90;;;;;;4995597;28;20061;-68
2023/07/25 11:53:15;;;;;;;3.33;0.70;;;19.80;99.90;;;;;;5007904;28;20050;-67
2023/07/25 11:55:41;;;;;;;6.13;0.80;;;19.60;99.90;;;;;;5010405;28;20046;-67
2023/07/25 11:58:07;;;;;;;2.90;0.50;;;19.60;99.90;;;;;;5005989;28;20405;-67
2023/07/25 12:00:39;;;;;;;4.43;0.70;;;19.40;99.90;;;;;;5008382;28;20051;-68
2023/07/25 12:03:22;;;;;;;10.32;0.88;;;19.40;99.90;;;;;;5008361;28;20080;-68
2023/07/25 12:05:53;;;;;;;2.38;0.50;;;19.30;99.90;;;;;;5010776;28;20042;-68
2023/07/25 12:08:33;;;;;;;7.78;0.73;;;19.20;99.90;;;;;;4997942;28;20050;-69
2023/07/25 12:11:08;;;;;;;7.45;0.77;;;19.40;99.90;;;;;;5010447;28;20085;-69
2023/07/25 12:13:49;;;;;;;3.97;0.57;;;19.60;99.90;;;;;;5005436;28;20056;-68
2023/07/25 12:16:28;;;;;;;9.48;0.80;;;19.80;99.90;;;;;;5014202;28;20082;-67
2023/07/25 12:18:56;;;;;;;3.47;0.60;;;19.80;99.90;;;;;;5009596;28;20125;-69
2023/07/25 12:21:26;;;;;;;1.58;0.50;;;19.90;99.90;;;;;;5008316;28;20058;-68
2023/07/25 12:23:53;;;;;;;5.28;0.68;;;19.70;99.90;;;;;;5008299;28;20524;-68
2023/07/25 12:26:21;;;;;;;3.13;0.52;;;19.70;99.90;;;;;;5007465;28;20051;-68
2023/07/25 12:28:48;;;;;;;6.65;0.50;;;19.50;99.90;;;;;;5003915;28;20141;-68
2023/07/25 12:31:14;;;;;;;5.90;0.80;;;19.40;99.90;;;;;;5007296;28;20087;-68
2023/07/25 12:33:43;;;;;;;2.65;0.60;;;19.20;99.90;;;;;;5002490;28;20517;-68
2023/07/25 12:36:10;;;;;;;6.65;0.90;;;19.30;99.90;;;;;;5004692;28;20552;-68
2023/07/25 12:38:36;;;;;;;7.63;1.35;;;19.40;99.90;;;;;;4994943;28;20038;-69
2023/07/25 12:41:02;;;;;;;5.50;0.90;;;19.80;99.90;;;;;;5001437;28;20100;-68